createdAt,value
2019-03-20T00:00:40.261Z,17.87
2019-03-20T00:03:06.433Z,17.97
2019-03-20T00:05:32.438Z,19.67
2019-03-20T00:07:58.522Z,15.90
2019-03-20T00:10:24.672Z,20.30
2019-03-20T00:12:50.956Z,19.43
2019-03-20T00:15:16.921Z,21.03
2019-03-20T00:17:43.047Z,25.03
2019-03-20T00:20:10.487Z,17.07
2019-03-20T00:22:36.965Z,22.30
2019-03-20T00:25:03.881Z,17.07
2019-03-20T00:27:29.706Z,18.60
2019-03-20T00:29:55.604Z,17.20
2019-03-20T00:32:21.583Z,17.07
2019-03-20T00:34:47.624Z,17.40
2019-03-20T00:37:13.815Z,16.63
2019-03-20T00:39:39.766Z,14.23
2019-03-20T00:42:05.774Z,14.47
2019-03-20T00:44:31.722Z,24.40
2019-03-20T00:46:57.724Z,15.40
2019-03-20T00:49:23.689Z,22.67
2019-03-20T00:51:49.771Z,18.73
2019-03-20T00:54:15.950Z,20.43
2019-03-20T00:56:42.108Z,19.87
2019-03-20T00:59:08.074Z,12.47
2019-03-20T01:01:33.917Z,23.77
2019-03-20T01:03:59.758Z,15.60
2019-03-20T01:06:25.794Z,18.13
2019-03-20T01:08:51.633Z,14.73
2019-03-20T01:11:17.721Z,18.13
2019-03-20T01:13:44.765Z,15.27
2019-03-20T01:16:10.973Z,19.33
2019-03-20T01:18:37.324Z,19.77
2019-03-20T01:21:03.725Z,16.77
2019-03-20T01:23:29.554Z,16.37
2019-03-20T01:25:55.531Z,14.23
2019-03-20T01:28:21.477Z,19.03
2019-03-20T01:30:47.498Z,15.33
2019-03-20T01:33:13.342Z,17.00
2019-03-20T01:35:40.090Z,19.67
2019-03-20T01:38:07.031Z,20.73
2019-03-20T01:40:33.181Z,14.03
2019-03-20T01:42:59.305Z,23.53
2019-03-20T01:45:25.351Z,18.47
2019-03-20T01:47:51.338Z,16.13
2019-03-20T01:50:17.299Z,16.37
2019-03-20T01:52:43.277Z,18.30
2019-03-20T01:55:09.504Z,18.93
2019-03-20T01:57:35.447Z,19.03
2019-03-20T02:00:03.053Z,17.97
2019-03-20T02:02:28.985Z,14.83
2019-03-20T02:04:54.802Z,14.77
2019-03-20T02:07:20.771Z,15.73
2019-03-20T02:09:47.010Z,12.90
2019-03-20T02:12:12.974Z,12.90
2019-03-20T02:14:38.928Z,18.00
2019-03-20T02:17:04.938Z,17.83
2019-03-20T02:19:30.985Z,14.83
2019-03-20T02:21:56.899Z,16.30
2019-03-20T02:24:22.757Z,12.97
2019-03-20T02:26:48.753Z,11.37
2019-03-20T02:29:14.963Z,18.27
2019-03-20T02:31:41.010Z,14.33
2019-03-20T02:34:07.040Z,19.30
2019-03-20T02:36:33.084Z,18.50
2019-03-20T02:38:58.983Z,18.37
2019-03-20T02:41:25.395Z,15.17
2019-03-20T02:43:51.497Z,13.03
2019-03-20T02:46:17.300Z,14.80
2019-03-20T02:48:43.341Z,19.07
2019-03-20T02:51:09.379Z,12.80
2019-03-20T02:53:35.168Z,12.17
2019-03-20T02:56:01.517Z,16.27
2019-03-20T02:58:27.778Z,14.63
2019-03-20T03:00:53.888Z,13.27
2019-03-20T03:03:20.079Z,17.60
2019-03-20T03:05:46.055Z,15.50
2019-03-20T03:08:12.290Z,13.07
2019-03-20T03:10:38.247Z,13.27
2019-03-20T03:13:04.238Z,16.90
2019-03-20T03:15:30.201Z,17.90
2019-03-20T03:17:56.205Z,14.30
2019-03-20T03:20:22.199Z,14.23
2019-03-20T03:22:48.251Z,12.23
2019-03-20T03:25:14.364Z,17.00
2019-03-20T03:27:40.529Z,15.67
2019-03-20T03:30:09.873Z,17.30
2019-03-20T03:32:35.934Z,13.60
2019-03-20T03:35:02.941Z,13.87
2019-03-20T03:37:29.049Z,15.20
2019-03-20T03:39:54.998Z,15.13
2019-03-20T03:42:20.888Z,19.33
2019-03-20T03:44:46.899Z,15.13
2019-03-20T03:47:12.872Z,16.10
2019-03-20T03:49:38.758Z,16.17
2019-03-20T03:52:04.985Z,11.87
2019-03-20T03:54:30.854Z,14.63
2019-03-20T03:56:57.152Z,14.30
2019-03-20T03:59:31.133Z,15.87
2019-03-20T04:01:57.475Z,20.03
2019-03-20T04:04:23.640Z,15.77
2019-03-20T04:06:49.520Z,17.23
2019-03-20T04:09:15.403Z,15.47
2019-03-20T04:11:41.386Z,18.97
2019-03-20T04:14:07.290Z,15.73
2019-03-20T04:16:33.225Z,12.87
2019-03-20T04:18:59.130Z,14.73
2019-03-20T04:21:25.143Z,18.10
2019-03-20T04:23:51.197Z,21.07
2019-03-20T04:26:18.092Z,23.60
2019-03-20T04:28:44.149Z,15.17
2019-03-20T04:31:10.161Z,15.30
2019-03-20T04:33:36.193Z,15.13
2019-03-20T04:36:02.022Z,15.80
2019-03-20T04:38:27.980Z,13.30
2019-03-20T04:40:54.214Z,17.33
2019-03-20T04:43:20.188Z,13.97
2019-03-20T04:45:46.206Z,18.07
2019-03-20T04:48:12.192Z,17.33
2019-03-20T04:50:38.217Z,17.50
2019-03-20T04:53:04.241Z,14.87
2019-03-20T04:55:30.339Z,15.97
2019-03-20T04:57:56.275Z,16.30
2019-03-20T05:00:22.797Z,15.23
2019-03-20T05:02:48.733Z,13.93
2019-03-20T05:05:14.741Z,17.70
2019-03-20T05:07:40.674Z,18.50
2019-03-20T05:10:09.642Z,17.07
2019-03-20T05:12:35.635Z,15.10
2019-03-20T05:15:02.999Z,13.87
2019-03-20T05:17:28.911Z,17.00
2019-03-20T05:19:54.769Z,10.50
2019-03-20T05:22:20.722Z,15.70
2019-03-20T05:24:46.949Z,20.63
2019-03-20T05:27:13.032Z,15.00
2019-03-20T05:29:39.080Z,14.33
2019-03-20T05:32:05.100Z,18.33
2019-03-20T05:34:31.168Z,13.03
2019-03-20T05:36:57.682Z,16.80
2019-03-20T05:39:23.657Z,16.70
2019-03-20T05:41:49.528Z,15.70
2019-03-20T05:44:15.385Z,17.23
2019-03-20T05:46:41.594Z,17.03
2019-03-20T05:49:07.496Z,30.33
2019-03-20T05:51:33.689Z,17.40
2019-03-20T05:53:59.679Z,27.50
2019-03-20T05:56:25.705Z,15.23
2019-03-20T05:58:51.770Z,16.43
2019-03-20T06:01:17.899Z,23.37
2019-03-20T06:03:43.803Z,25.23
2019-03-20T06:06:09.609Z,16.23
2019-03-20T06:08:35.929Z,19.90
2019-03-20T06:11:01.984Z,15.30
2019-03-20T06:13:30.662Z,15.87
2019-03-20T06:15:56.592Z,17.43
2019-03-20T06:18:22.632Z,19.50
2019-03-20T06:20:48.636Z,23.13
2019-03-20T06:23:15.163Z,24.27
2019-03-20T06:25:41.128Z,20.63
2019-03-20T06:28:07.265Z,22.43
2019-03-20T06:30:33.301Z,22.00
2019-03-20T06:33:00.481Z,22.00
2019-03-20T06:35:26.445Z,17.87
2019-03-20T06:37:52.487Z,27.70
2019-03-20T06:40:18.765Z,17.83
2019-03-20T06:42:44.898Z,19.00
2019-03-20T06:45:12.564Z,17.53
2019-03-20T06:47:38.593Z,18.80
2019-03-20T06:50:08.249Z,21.10
2019-03-20T06:52:34.209Z,18.20
2019-03-20T06:55:01.250Z,20.53
2019-03-20T06:57:27.511Z,20.17
2019-03-20T07:00:31.531Z,20.07
2019-03-20T07:03:00.341Z,15.60
2019-03-20T07:05:50.892Z,22.03
2019-03-20T07:08:18.806Z,20.23
2019-03-20T07:10:51.605Z,15.47
2019-03-20T07:13:17.667Z,17.53
2019-03-20T07:15:43.801Z,23.50
2019-03-20T07:18:10.242Z,24.13
2019-03-20T07:20:36.166Z,22.57
2019-03-20T07:23:02.121Z,19.10
2019-03-20T07:25:28.242Z,26.57
2019-03-20T07:27:54.349Z,18.73
2019-03-20T07:30:20.271Z,18.57
2019-03-20T07:32:46.063Z,21.40
2019-03-20T07:35:12.563Z,25.37
2019-03-20T07:37:38.541Z,15.73
2019-03-20T07:40:07.247Z,23.13
2019-03-20T07:42:33.344Z,31.83
2019-03-20T07:44:59.299Z,20.23
2019-03-20T07:47:25.181Z,18.10
2019-03-20T07:49:51.001Z,30.93
2019-03-20T07:52:16.990Z,29.63
2019-03-20T07:54:43.132Z,22.93
2019-03-20T07:57:09.175Z,21.63
2019-03-20T07:59:35.168Z,23.53
2019-03-20T08:02:01.650Z,28.60
2019-03-20T08:04:27.640Z,23.50
2019-03-20T08:06:53.421Z,33.13
2019-03-20T08:09:19.496Z,21.77
2019-03-20T08:11:45.826Z,23.57
2019-03-20T08:14:12.079Z,23.60
2019-03-20T08:16:38.138Z,27.17
2019-03-20T08:19:04.203Z,19.23
2019-03-20T08:21:30.229Z,20.13
2019-03-20T08:23:56.171Z,16.80
2019-03-20T08:26:22.111Z,19.07
2019-03-20T08:28:48.274Z,19.60
2019-03-20T08:31:14.323Z,20.20
2019-03-20T08:33:40.325Z,21.73
2019-03-20T08:36:06.142Z,28.73
2019-03-20T08:38:32.116Z,25.47
2019-03-20T08:40:58.191Z,21.07
2019-03-20T08:43:24.186Z,23.50
2019-03-20T08:45:50.231Z,20.93
2019-03-20T08:48:16.233Z,22.37
2019-03-20T08:50:42.247Z,22.87
2019-03-20T08:53:08.324Z,21.13
2019-03-20T08:55:34.404Z,17.75
2019-03-20T08:58:00.644Z,17.15
2019-03-20T09:00:26.898Z,18.73
2019-03-20T09:02:53.097Z,18.62
2019-03-20T09:05:19.052Z,25.88
2019-03-20T09:07:47.567Z,22.07
2019-03-20T09:10:17.135Z,22.62
2019-03-20T09:12:43.221Z,25.30
2019-03-20T09:15:11.586Z,29.10
2019-03-20T09:17:37.639Z,22.42
2019-03-20T09:20:06.937Z,28.87
2019-03-20T09:22:32.951Z,23.55
2019-03-20T09:24:58.906Z,20.92
2019-03-20T09:27:25.141Z,18.95
2019-03-20T09:29:51.254Z,16.95
2019-03-20T09:32:17.247Z,21.02
2019-03-20T09:34:43.253Z,22.85
2019-03-20T09:37:09.326Z,22.82
2019-03-20T09:39:35.384Z,19.92
2019-03-20T09:42:01.465Z,20.10
2019-03-20T09:44:27.484Z,16.32
2019-03-20T09:46:53.503Z,25.88
2019-03-20T09:49:19.494Z,21.73
2019-03-20T09:51:45.470Z,14.70
2019-03-20T09:54:11.522Z,19.25
2019-03-20T09:56:37.518Z,21.07
2019-03-20T09:59:03.530Z,30.45
2019-03-20T10:01:29.408Z,22.17
2019-03-20T10:03:55.411Z,21.27
2019-03-20T10:06:21.291Z,21.80
2019-03-20T10:08:54.025Z,22.00
2019-03-20T10:11:15.184Z,21.17
2019-03-20T10:13:40.965Z,17.10
2019-03-20T10:16:07.013Z,22.00
2019-03-20T10:18:33.025Z,22.02
2019-03-20T10:20:59.033Z,18.75
2019-03-20T10:23:25.059Z,23.35
2019-03-20T10:25:51.147Z,21.30
2019-03-20T10:28:17.574Z,18.17
2019-03-20T10:30:43.712Z,18.85
2019-03-20T10:33:09.735Z,18.70
2019-03-20T10:35:35.715Z,21.07
2019-03-20T10:38:01.815Z,15.23
2019-03-20T10:40:27.884Z,19.52
2019-03-20T10:42:54.326Z,17.75
2019-03-20T10:45:20.663Z,20.02
2019-03-20T10:47:52.810Z,18.37
2019-03-20T10:50:21.586Z,15.88
2019-03-20T10:52:50.173Z,15.00
2019-03-20T10:55:16.423Z,16.65
2019-03-20T10:57:43.085Z,22.07
2019-03-20T11:00:12.600Z,15.40
2019-03-20T11:02:38.799Z,16.00
2019-03-20T11:05:06.192Z,10.45
2019-03-20T11:07:32.306Z,12.50
2019-03-20T11:09:58.338Z,12.63
2019-03-20T11:12:24.158Z,12.50
2019-03-20T11:14:50.162Z,12.25
2019-03-20T11:17:16.180Z,16.45
2019-03-20T11:19:42.418Z,11.30
2019-03-20T11:22:18.261Z,9.33
2019-03-20T11:24:36.643Z,9.10
2019-03-20T11:27:03.006Z,9.13
2019-03-20T11:29:29.044Z,12.33
2019-03-20T11:31:54.960Z,7.95
2019-03-20T11:34:20.988Z,10.15
2019-03-20T11:36:46.888Z,7.58
2019-03-20T11:39:13.124Z,8.65
2019-03-20T11:41:39.390Z,9.23
2019-03-20T11:44:05.398Z,13.05
2019-03-20T11:46:31.230Z,9.35
2019-03-20T11:48:57.675Z,7.35
2019-03-20T11:51:23.747Z,11.63
2019-03-20T11:53:49.887Z,14.83
2019-03-20T11:56:15.740Z,10.75
2019-03-20T11:58:41.648Z,12.33
2019-03-20T12:01:07.831Z,14.13
2019-03-20T12:03:33.656Z,11.30
2019-03-20T12:05:59.620Z,10.45
2019-03-20T12:08:25.588Z,12.30
2019-03-20T12:10:51.751Z,14.07
2019-03-20T12:13:17.963Z,11.65
2019-03-20T12:15:44.249Z,12.00
2019-03-20T12:18:10.050Z,11.60
2019-03-20T12:20:36.083Z,12.18
2019-03-20T12:23:02.099Z,13.33
2019-03-20T12:25:36.753Z,9.70
2019-03-20T12:28:03.205Z,10.33
2019-03-20T12:30:33.552Z,13.00
2019-03-20T12:32:59.669Z,12.80
2019-03-20T12:35:38.134Z,11.07
2019-03-20T12:38:13.822Z,16.37
2019-03-20T12:40:32.869Z,10.30
2019-03-20T12:42:59.219Z,8.27
2019-03-20T12:45:30.103Z,13.03
2019-03-20T12:47:56.151Z,11.18
2019-03-20T12:50:21.983Z,21.07
2019-03-20T12:52:48.518Z,10.60
2019-03-20T12:55:16.295Z,11.17
2019-03-20T12:57:42.298Z,13.55
2019-03-20T13:00:13.862Z,15.13
2019-03-20T13:02:40.366Z,14.50
2019-03-20T13:05:09.271Z,13.43
2019-03-20T13:07:35.321Z,13.50
2019-03-20T13:10:03.518Z,10.27
2019-03-20T13:12:29.550Z,13.97
2019-03-20T13:14:55.373Z,13.47
2019-03-20T13:17:21.378Z,9.77
2019-03-20T13:19:47.481Z,12.33
2019-03-20T13:22:13.292Z,11.93
2019-03-20T13:24:39.370Z,9.67
2019-03-20T13:27:05.409Z,11.93
2019-03-20T13:29:31.231Z,11.17
2019-03-20T13:31:57.692Z,8.87
2019-03-20T13:34:23.603Z,9.90
2019-03-20T13:36:49.605Z,14.30
2019-03-20T13:39:15.678Z,8.10
2019-03-20T13:41:41.476Z,13.07
2019-03-20T13:44:07.449Z,8.93
2019-03-20T13:46:33.520Z,15.17
2019-03-20T13:48:59.363Z,12.13
2019-03-20T13:51:25.377Z,9.17
2019-03-20T13:53:51.563Z,9.93
2019-03-20T13:56:17.601Z,11.20
2019-03-20T13:58:43.480Z,12.83
2019-03-20T14:01:09.591Z,12.13
2019-03-20T14:03:35.680Z,48.60
2019-03-20T14:06:01.693Z,11.67
2019-03-20T14:08:27.551Z,14.53
2019-03-20T14:10:53.503Z,12.70
2019-03-20T14:13:19.595Z,13.47
2019-03-20T14:15:45.734Z,13.73
2019-03-20T14:18:11.648Z,15.27
2019-03-20T14:20:37.701Z,11.33
2019-03-20T14:23:03.775Z,9.90
2019-03-20T14:25:30.026Z,11.03
2019-03-20T14:27:56.004Z,12.87
2019-03-20T14:30:30.497Z,15.03
2019-03-20T14:32:56.699Z,18.13
2019-03-20T14:35:22.986Z,16.13
2019-03-20T14:37:49.177Z,15.67
2019-03-20T14:40:18.103Z,16.17
2019-03-20T14:42:44.204Z,22.20
2019-03-20T14:45:12.922Z,13.63
2019-03-20T14:47:42.288Z,12.17
2019-03-20T14:50:10.191Z,16.27
2019-03-20T14:52:36.292Z,14.90
2019-03-20T14:55:04.158Z,14.20
2019-03-20T14:57:30.066Z,14.77
2019-03-20T14:59:56.088Z,17.90
2019-03-20T15:02:22.148Z,19.20
2019-03-20T15:04:47.958Z,15.80
2019-03-20T15:07:13.928Z,15.37
2019-03-20T15:09:39.986Z,13.60
2019-03-20T15:12:05.816Z,16.63
2019-03-20T15:14:31.825Z,9.50
2019-03-20T15:16:57.803Z,16.67
2019-03-20T15:19:23.809Z,16.20
2019-03-20T15:21:50.043Z,12.90
2019-03-20T15:24:15.954Z,15.43
2019-03-20T15:26:42.062Z,16.30
2019-03-20T15:29:08.014Z,14.80
2019-03-20T15:31:33.935Z,14.60
2019-03-20T15:33:59.910Z,14.47
2019-03-20T15:36:26.044Z,12.63
2019-03-20T15:38:51.992Z,20.53
2019-03-20T15:41:18.170Z,12.97
2019-03-20T15:43:44.120Z,12.07
2019-03-20T15:46:10.198Z,12.50
2019-03-20T15:48:36.790Z,14.13
2019-03-20T15:51:03.074Z,12.50
2019-03-20T15:53:28.865Z,16.50
2019-03-20T15:55:54.906Z,14.03
2019-03-20T15:58:21.069Z,13.83
2019-03-20T16:00:47.199Z,13.77
2019-03-20T16:03:32.616Z,15.63
2019-03-20T16:05:58.833Z,12.70
2019-03-20T16:08:25.036Z,11.90
2019-03-20T16:10:50.984Z,11.73
2019-03-20T16:13:17.078Z,9.30
2019-03-20T16:15:43.191Z,10.40
2019-03-20T16:18:09.256Z,10.43
2019-03-20T16:20:35.535Z,11.47
2019-03-20T16:23:01.376Z,11.80
2019-03-20T16:25:27.509Z,13.23
2019-03-20T16:27:53.516Z,11.00
2019-03-20T16:30:25.906Z,15.90
2019-03-20T16:32:52.065Z,16.10
2019-03-20T16:35:18.685Z,10.47
2019-03-20T16:37:44.527Z,8.23
2019-03-20T16:40:25.192Z,13.30
2019-03-20T16:42:51.072Z,24.40
2019-03-20T16:45:22.403Z,14.00
2019-03-20T16:47:48.226Z,12.67
2019-03-20T16:50:15.774Z,10.43
2019-03-20T16:52:41.808Z,9.17
2019-03-20T16:55:10.120Z,12.87
2019-03-20T16:57:35.971Z,9.77
2019-03-20T17:00:05.772Z,8.83
2019-03-20T17:02:32.070Z,9.60
2019-03-20T17:04:58.296Z,11.07
2019-03-20T17:07:24.538Z,10.20
2019-03-20T17:09:50.670Z,9.77
2019-03-20T17:12:16.606Z,10.17
2019-03-20T17:14:42.616Z,9.53
2019-03-20T17:17:08.616Z,11.00
2019-03-20T17:19:34.613Z,9.60
2019-03-20T17:22:00.599Z,9.03
2019-03-20T17:24:26.404Z,9.33
2019-03-20T17:26:52.545Z,17.53
2019-03-20T17:29:18.541Z,10.93
2019-03-20T17:31:44.386Z,14.23
2019-03-20T17:34:10.416Z,11.73
2019-03-20T17:36:36.268Z,16.87
2019-03-20T17:39:05.876Z,13.30
2019-03-20T17:41:36.623Z,14.00
2019-03-20T17:43:59.906Z,14.13
2019-03-20T17:46:25.840Z,8.63
2019-03-20T17:48:51.658Z,10.83
2019-03-20T17:51:30.794Z,12.23
2019-03-20T17:53:56.286Z,16.20
2019-03-20T17:56:22.240Z,15.17
2019-03-20T17:58:48.246Z,16.30
2019-03-20T18:01:14.471Z,15.60
2019-03-20T18:03:40.620Z,12.53
2019-03-20T18:06:06.877Z,16.13
2019-03-20T18:08:32.732Z,17.90
2019-03-20T18:10:58.823Z,15.43
2019-03-20T18:13:24.876Z,14.67
2019-03-20T18:15:50.898Z,13.27
2019-03-20T18:18:17.038Z,16.63
2019-03-20T18:20:43.278Z,15.83
2019-03-20T18:23:09.481Z,17.10
2019-03-20T18:25:35.632Z,16.93
2019-03-20T18:28:01.510Z,15.87
2019-03-20T18:30:33.141Z,17.20
2019-03-20T18:32:59.109Z,16.20
2019-03-20T18:35:25.766Z,15.43
2019-03-20T18:37:52.168Z,16.43
2019-03-20T18:40:22.061Z,15.57
2019-03-20T18:42:48.033Z,17.03
2019-03-20T18:45:16.940Z,13.77
2019-03-20T18:47:43.151Z,13.60
2019-03-20T18:50:10.549Z,13.83
2019-03-20T18:52:36.858Z,18.77
2019-03-20T18:55:05.816Z,12.83
2019-03-20T18:57:31.850Z,14.30
2019-03-20T18:59:58.081Z,17.50
2019-03-20T19:02:23.900Z,15.87
2019-03-20T19:04:49.917Z,21.17
2019-03-20T19:07:16.073Z,16.13
2019-03-20T19:09:42.310Z,22.10
2019-03-20T19:12:09.129Z,19.57
2019-03-20T19:14:35.359Z,19.30
2019-03-20T19:17:01.572Z,28.93
2019-03-20T19:19:27.572Z,24.70
2019-03-20T19:21:53.460Z,28.97
2019-03-20T19:24:19.611Z,25.60
2019-03-20T19:26:45.690Z,25.60
2019-03-20T19:29:11.659Z,28.60
2019-03-20T19:31:37.522Z,19.87
2019-03-20T19:34:03.435Z,26.13
2019-03-20T19:36:29.265Z,29.73
2019-03-20T19:38:55.101Z,23.50
2019-03-20T19:41:21.157Z,22.43
2019-03-20T19:43:47.335Z,25.30
2019-03-20T19:46:13.140Z,23.63
2019-03-20T19:48:39.157Z,23.57
2019-03-20T19:51:05.000Z,25.70
2019-03-20T19:53:31.088Z,24.37
2019-03-20T19:55:57.201Z,26.57
2019-03-20T19:58:23.027Z,23.27
2019-03-20T20:00:49.111Z,27.77
2019-03-20T20:03:15.142Z,23.63
2019-03-20T20:05:41.257Z,26.10
2019-03-20T20:08:07.498Z,31.43
2019-03-20T20:10:33.498Z,27.53
2019-03-20T20:12:59.450Z,23.03
2019-03-20T20:15:28.046Z,26.93
2019-03-20T20:17:54.362Z,23.57
2019-03-20T20:20:22.168Z,23.73
2019-03-20T20:22:48.326Z,28.60
2019-03-20T20:25:14.390Z,22.43
2019-03-20T20:27:40.330Z,19.83
2019-03-20T20:30:15.434Z,23.60
2019-03-20T20:32:41.691Z,17.77
2019-03-20T20:35:09.392Z,23.23
2019-03-20T20:37:35.188Z,22.87
2019-03-20T20:40:01.206Z,16.93
2019-03-20T20:42:27.038Z,19.83
2019-03-20T20:44:53.034Z,18.93
2019-03-20T20:47:19.029Z,22.50
2019-03-20T20:49:45.190Z,21.60
2019-03-20T20:52:19.286Z,21.50
2019-03-20T20:54:39.302Z,26.87
2019-03-20T20:57:05.388Z,25.13
2019-03-20T20:59:31.378Z,35.27
2019-03-20T21:01:57.446Z,28.07
2019-03-20T21:04:23.276Z,23.33
2019-03-20T21:06:49.315Z,26.43
2019-03-20T21:09:15.118Z,29.80
2019-03-20T21:11:41.174Z,35.37
2019-03-20T21:14:06.975Z,30.37
2019-03-20T21:16:33.110Z,27.47
2019-03-20T21:19:11.575Z,31.13
2019-03-20T21:21:39.901Z,24.17
2019-03-20T21:24:20.970Z,31.63
2019-03-20T21:27:06.083Z,25.93
2019-03-20T21:29:54.004Z,28.83
2019-03-20T21:32:41.663Z,30.40
2019-03-20T21:35:38.566Z,24.20
2019-03-20T21:38:05.721Z,34.87
2019-03-20T21:40:44.708Z,28.47
2019-03-20T21:43:37.466Z,24.53
2019-03-20T21:46:19.438Z,26.47
2019-03-20T21:48:45.406Z,27.03
2019-03-20T21:51:12.377Z,27.87
2019-03-20T21:53:45.036Z,24.53
2019-03-20T21:56:24.137Z,30.80
2019-03-20T21:59:02.822Z,22.73
2019-03-20T22:01:41.894Z,29.27
2019-03-20T22:04:07.826Z,35.83
2019-03-20T22:07:08.540Z,28.43
2019-03-20T22:09:53.168Z,30.93
2019-03-20T22:12:58.377Z,27.87
2019-03-20T22:15:52.572Z,33.27
2019-03-20T22:18:48.587Z,28.90
2019-03-20T22:21:35.239Z,27.27
2019-03-20T22:24:05.148Z,27.77
2019-03-20T22:26:43.597Z,27.43
2019-03-20T22:29:26.050Z,28.00
2019-03-20T22:32:07.560Z,29.13
2019-03-20T22:34:43.332Z,26.90
2019-03-20T22:37:09.364Z,29.90
2019-03-20T22:40:14.340Z,23.07
2019-03-20T22:43:01.785Z,25.20
2019-03-20T22:45:40.325Z,23.80
2019-03-20T22:48:09.973Z,22.87
2019-03-20T22:50:54.670Z,24.40
2019-03-20T22:53:36.372Z,25.87
2019-03-20T22:56:23.165Z,22.13
2019-03-20T22:58:49.277Z,23.70
2019-03-20T23:01:21.910Z,20.23
2019-03-20T23:03:51.589Z,22.67
2019-03-20T23:06:17.704Z,24.47
2019-03-20T23:08:43.902Z,21.80
2019-03-20T23:11:09.960Z,20.23
2019-03-20T23:13:41.592Z,22.10
2019-03-20T23:16:06.877Z,23.20
2019-03-20T23:18:33.131Z,22.67
2019-03-20T23:20:59.066Z,25.20
2019-03-20T23:23:25.214Z,21.80
2019-03-20T23:25:51.027Z,26.90
2019-03-20T23:28:17.241Z,24.40
2019-03-20T23:30:43.474Z,24.93
2019-03-20T23:33:09.671Z,25.80
2019-03-20T23:35:35.483Z,19.40
2019-03-20T23:38:01.576Z,28.57
2019-03-20T23:40:27.680Z,24.00
2019-03-20T23:42:58.978Z,23.13
2019-03-20T23:45:25.028Z,24.47
2019-03-20T23:48:03.977Z,21.37
2019-03-20T23:50:29.991Z,21.60
2019-03-20T23:52:56.323Z,21.73
2019-03-20T23:55:22.316Z,21.77
2019-03-20T23:57:48.302Z,20.53
